This is the latest recevied weather packets stored in our database for station/object K7SKM. If no packets are shown the sender has not sent any weather packets the latest 1 day(s).
| Time | Temp. | Humidity | Pressure | Rain* | Wind** | Luminosity | Snow |
|---|---|---|---|---|---|---|---|
| 1778098769 | 15° C | 69% | 1025.1 hPa | 0 mm | - | 70 W/m² | - |
| 1778098163 | 14.44° C | 72% | 1025.2 hPa | 0 mm | - | 68 W/m² | - |
| 1778097556 | 14.44° C | 73% | 1025.1 hPa | 0 mm | - | 57 W/m² | - |
| 1778095737 | 13.89° C | 73% | 1025.2 hPa | 0 mm | - | 50 W/m² | - |
| 1778095434 | 13.89° C | 73% | 1025 hPa | 0 mm | - | 50 W/m² | - |
| 1778095131 | 14.44° C | 73% | 1025.2 hPa | 0 mm | - | 56 W/m² | - |
| 1778094827 | 13.89° C | 73% | 1025 hPa | 0 mm | - | 59 W/m² | - |
| 1778092401 | 13.89° C | 73% | 1025 hPa | 0 mm | - | 47 W/m² | - |
| 1778090888 | 13.89° C | 74% | 1024.7 hPa | 0 mm | - | 89 W/m² | - |
| 1778089372 | 13.89° C | 74% | 1024.8 hPa | 0 mm | - | 70 W/m² | - |
| 1778088766 | 13.89° C | 74% | 1024.9 hPa | 0 mm | - | 63 W/m² | - |
| 1778087554 | 13.89° C | 73% | 1025.1 hPa | 0 mm | - | 67 W/m² | - |
| 1778086948 | 13.33° C | 75% | 1025 hPa | 0 mm | - | 65 W/m² | - |
| 1778085129 | 13.33° C | 75% | 1024.5 hPa | 0 mm | - | 70 W/m² | - |
| 1778084523 | 13.33° C | 75% | 1024.4 hPa | 0 mm | - | 77 W/m² | - |
| 1778084220 | 13.33° C | 76% | 1024.4 hPa | 0 mm | - | 74 W/m² | - |
| 1778083311 | 12.78° C | 78% | 1024.9 hPa | 0 mm | - | 40 W/m² | - |
| 1778082706 | 12.78° C | 78% | 1024.8 hPa | 0 mm | - | 28 W/m² | - |
| 1778081265 | 12.22° C | 80% | 1024.4 hPa | 0 mm | - | 49 W/m² | - |
| 1778080054 | 12.22° C | 79% | 1024.6 hPa | 0 mm | - | 24 W/m² | - |
| 1778077028 | 12.22° C | 79% | 1024.2 hPa | 0 mm | - | 10 W/m² | - |
| 1778076726 | 12.78° C | 79% | 1024.3 hPa | 0 mm | - | 11 W/m² | - |
| 1778076120 | 12.22° C | 78% | 1024.3 hPa | 0 mm | - | 9 W/m² | - |
| 1778075817 | 12.22° C | 79% | 1024.1 hPa | 0 mm | - | 11 W/m² | - |
| 1778075210 | 12.22° C | 79% | 1024.2 hPa | 0 mm | - | 7 W/m² | - |
* Rain latest hour (hover to see other rain measurements)
** Current wind speed in m/s (hover to see current wind gust speed)